עמוד ראשי
METAR-TAF:

METAR-TAF

שדות תעופה :

סלוניקי, יוון

נמל התעופה הבינלאומי סלוניקי מקדוניה

קו רוחב: 40-31N, קו אורך: 022-58E, גובה: 8מטר

תצפית מזג אוויר נוכחית

הדו"ח נערך לפני 24דקות, בשעה 19:20 UTC
רוח 16קשר מכיוון צפון/צפון-מערב עם משבים עד 29קשר
טמפרטורת 24 צלסיוס
לחות 41%
לחץ 1011 hPa
ראות 10 קילומטר או יותר
מעט עננים בגובה 3000רגל

METAR: LGTS 211920Z 34016G29KT 9999 FEW030 24/10 Q1011 NOSIG

זמן: 22:44 (19:44 UTC)

תחזית

הדו"ח נערך לפני 2 שעות ו 44דקות, בשעה 17:00 UTC
תחזית בתוקף מ 21 ב 18 UTC עד 22 ב 18 UTC
רוח 20קשר מכיוון צפון/צפון-מערב עם משבים עד 35קשר
ראות 10 קילומטר או יותר
מעט עננים בגובה 3000רגל
יעשה מ
22 ב 12 UTC עד 22 ב 14 UTC
רוח 15קשר מכיוון צפון-מערב

TAF: LGTS 211700Z 2118/2218 34020G35KT 9999 FEW030 BECMG 2212/2214 32015KT

תצפיות ותחזיות מזג אוויר לגבי יותר מ- 4,000 שדות תעופה ברחבי העולם. דוחות METAR ו- TAF.

התחנות הזמינות מסומנות בנקודות צהובות ואדומות על גבי המפה.

העבר את העכבר לנקודה הצבעונית על מנת לראות את שם התחנה.

לאחר מכן, לחץ כדי לראות את תוכן ואת תחזיות מזג האוויר.

כדי לשנות את המפה: לחץ על הכפתורים הירוקים עם הפלוס השחור כדי להתקרב; על הכפתור הירוק עם המקף כדי להתרחק; או בחיצים הירוקים למפות סמוכות.


METAR-TAF: